Time;durP1;ratioP1;P1;durP2;ratioP2;P2;SDS_P1;SDS_P2;PMS_P1;PMS_P2;Temp;Humidity;BMP_temperature;BMP_pressure;BME280_temperature;BME280_humidity;BME280_pressure;Samples;Min_cycle;Max_cycle;Signal;HPM_P1;HPM_P2
2021/06/27 00:01:50;;;;;;;182.07;166.30;;;;;;;;;;5286275;27;20115;-84
2021/06/27 00:04:20;;;;;;;205.15;185.57;;;;;;;;;;5286045;27;20086;-84
2021/06/27 00:06:48;;;;;;;163.87;146.80;;;;;;;;;;5287656;27;20037;-84
2021/06/27 00:09:17;;;;;;;158.02;141.20;;;;;;;;;;5285541;27;20056;-84
2021/06/27 00:11:46;;;;;;;159.50;142.65;;;;;;;;;;5285016;27;20446;-84
2021/06/27 00:14:15;;;;;;;162.23;147.70;;;;;;;;;;5287698;27;20025;-84
2021/06/27 00:16:43;;;;;;;182.55;164.60;;;;;;;;;;5285150;27;20052;-84
2021/06/27 00:19:13;;;;;;;160.88;144.55;;;;;;;;;;5286145;27;20053;-84
2021/06/27 00:21:42;;;;;;;148.98;136.30;;;;;;;;;;5286852;27;20035;-84
2021/06/27 00:24:10;;;;;;;212.07;194.13;;;;;;;;;;5286827;27;20427;-85
2021/06/27 00:26:39;;;;;;;136.07;122.60;;;;;;;;;;5287502;27;20030;-84
2021/06/27 00:29:07;;;;;;;130.63;117.30;;;;;;;;;;5289273;27;20057;-83
2021/06/27 00:31:36;;;;;;;146.30;132.20;;;;;;;;;;5286814;27;20431;-84
2021/06/27 00:34:05;;;;;;;170.30;154.68;;;;;;;;;;5287665;27;20052;-83
2021/06/27 00:36:33;;;;;;;149.30;135.10;;;;;;;;;;5285581;27;20132;-84
2021/06/27 00:39:03;;;;;;;175.43;160.12;;;;;;;;;;5289652;27;20713;-84
2021/06/27 00:41:32;;;;;;;170.10;155.48;;;;;;;;;;5291404;27;20036;-84
2021/06/27 00:44:00;;;;;;;268.23;247.20;;;;;;;;;;5288800;27;20373;-84
2021/06/27 00:46:29;;;;;;;226.68;206.60;;;;;;;;;;5285523;27;20399;-84
2021/06/27 00:48:58;;;;;;;288.52;264.25;;;;;;;;;;5288121;27;20459;-84
2021/06/27 00:51:26;;;;;;;240.07;218.98;;;;;;;;;;5267246;27;20048;-85
2021/06/27 00:53:55;;;;;;;308.55;283.35;;;;;;;;;;5287948;27;20073;-84
2021/06/27 00:56:24;;;;;;;266.45;243.82;;;;;;;;;;5266699;27;20071;-84
2021/06/27 00:58:52;;;;;;;207.62;191.70;;;;;;;;;;5288276;27;20035;-83
2021/06/27 01:01:21;;;;;;;280.95;259.37;;;;;;;;;;5287900;27;20044;-83
2021/06/27 01:03:50;;;;;;;223.60;206.20;;;;;;;;;;5289100;27;20049;-84
2021/06/27 01:06:18;;;;;;;243.55;225.77;;;;;;;;;;5285737;27;20113;-84
2021/06/27 01:08:46;;;;;;;297.02;273.33;;;;;;;;;;5287483;27;20317;-83
2021/06/27 01:11:15;;;;;;;207.35;190.62;;;;;;;;;;5286777;27;20033;-84
2021/06/27 01:13:44;;;;;;;331.42;305.30;;;;;;;;;;5288114;27;20062;-84
2021/06/27 01:16:12;;;;;;;270.10;248.87;;;;;;;;;;5285547;27;20040;-84
2021/06/27 01:18:41;;;;;;;250.00;230.18;;;;;;;;;;5287028;27;20021;-84
2021/06/27 01:21:10;;;;;;;254.15;234.62;;;;;;;;;;5285091;27;20810;-84
2021/06/27 01:23:38;;;;;;;260.70;239.80;;;;;;;;;;5284653;27;20424;-84
2021/06/27 01:26:07;;;;;;;251.25;230.75;;;;;;;;;;5284820;27;20114;-83
2021/06/27 01:28:42;;;;;;;228.43;210.07;;;;;;;;;;5288810;27;20028;-83
2021/06/27 01:31:11;;;;;;;271.52;248.68;;;;;;;;;;5285052;27;20056;-84
2021/06/27 01:33:40;;;;;;;309.58;284.70;;;;;;;;;;5264025;27;20063;-84
2021/06/27 01:36:08;;;;;;;315.08;291.20;;;;;;;;;;5264266;27;20061;-84
2021/06/27 01:38:37;;;;;;;255.70;237.05;;;;;;;;;;5284131;27;20029;-85
2021/06/27 01:41:06;;;;;;;294.55;272.45;;;;;;;;;;5284240;27;20437;-84
2021/06/27 01:43:34;;;;;;;208.25;191.90;;;;;;;;;;5284657;27;20113;-84
2021/06/27 01:46:04;;;;;;;267.45;246.18;;;;;;;;;;5285931;27;20026;-85
2021/06/27 01:48:34;;;;;;;322.75;297.83;;;;;;;;;;5286631;27;20127;-83
2021/06/27 01:51:03;;;;;;;333.52;308.65;;;;;;;;;;5284693;27;20083;-83
2021/06/27 01:53:33;;;;;;;307.15;283.65;;;;;;;;;;5284595;27;20416;-83
2021/06/27 01:56:05;;;;;;;262.95;243.02;;;;;;;;;;5285351;27;20035;-83
2021/06/27 01:58:39;;;;;;;301.02;278.58;;;;;;;;;;5269659;27;20052;-83
2021/06/27 02:01:08;;;;;;;332.87;307.15;;;;;;;;;;5284354;27;20043;-84
2021/06/27 02:03:38;;;;;;;264.45;244.60;;;;;;;;;;5285561;27;20061;-84
2021/06/27 02:06:09;;;;;;;368.05;338.90;;;;;;;;;;5286229;27;20065;-84
2021/06/27 02:08:39;;;;;;;240.43;221.23;;;;;;;;;;5287496;27;20288;-84
2021/06/27 02:11:08;;;;;;;262.08;239.63;;;;;;;;;;5283587;27;20057;-84
2021/06/27 02:13:37;;;;;;;310.38;286.90;;;;;;;;;;5284894;27;20386;-85
2021/06/27 02:16:06;;;;;;;269.10;249.45;;;;;;;;;;5288683;27;20060;-84
2021/06/27 02:18:36;;;;;;;298.62;276.67;;;;;;;;;;5290586;27;20060;-84
2021/06/27 02:21:06;;;;;;;308.30;286.20;;;;;;;;;;5286716;27;20040;-84
2021/06/27 02:23:35;;;;;;;342.48;315.98;;;;;;;;;;5288569;27;20427;-83
2021/06/27 02:26:04;;;;;;;288.67;266.95;;;;;;;;;;5289023;27;20057;-84
2021/06/27 02:28:33;;;;;;;298.38;276.52;;;;;;;;;;5291563;27;20029;-85
2021/06/27 02:31:02;;;;;;;305.12;281.38;;;;;;;;;;5288589;27;20053;-83
2021/06/27 02:33:30;;;;;;;341.33;314.63;;;;;;;;;;5288638;27;20032;-84
2021/06/27 02:35:59;;;;;;;347.30;320.40;;;;;;;;;;5289153;27;20458;-84
2021/06/27 02:38:28;;;;;;;310.67;286.65;;;;;;;;;;5289518;27;20598;-84
2021/06/27 02:40:56;;;;;;;266.77;244.32;;;;;;;;;;5265820;27;20056;-84
2021/06/27 02:43:26;;;;;;;283.02;259.67;;;;;;;;;;5289246;27;20048;-84
2021/06/27 02:45:55;;;;;;;334.95;308.15;;;;;;;;;;5288745;27;20158;-84
2021/06/27 02:48:23;;;;;;;311.42;285.80;;;;;;;;;;5291704;27;20045;-83
2021/06/27 02:50:52;;;;;;;329.17;302.52;;;;;;;;;;5288909;27;20075;-84
2021/06/27 02:53:20;;;;;;;225.48;209.00;;;;;;;;;;5289650;27;20452;-84
2021/06/27 02:56:06;;;;;;;320.00;296.63;;;;;;;;;;5289547;27;20065;-84
2021/06/27 02:58:39;;;;;;;226.10;209.30;;;;;;;;;;5287636;27;20033;-84
2021/06/27 03:01:08;;;;;;;216.07;200.00;;;;;;;;;;5289153;27;20465;-83
2021/06/27 03:03:41;;;;;;;261.70;241.38;;;;;;;;;;5290435;27;20033;-84
2021/06/27 03:06:10;;;;;;;293.67;270.17;;;;;;;;;;5289007;27;20037;-84
2021/06/27 03:08:39;;;;;;;219.32;201.98;;;;;;;;;;5290115;27;20029;-83
2021/06/27 03:11:11;;;;;;;239.48;221.10;;;;;;;;;;5292899;27;20025;-96
2021/06/27 03:14:28;;;;;;;261.12;241.50;;;;;;;;;;5268233;27;20088;-96
2021/06/27 03:17:12;;;;;;;211.68;194.55;;;;;;;;;;5264150;27;20382;-95
2021/06/27 03:19:56;;;;;;;270.33;250.02;;;;;;;;;;5264446;27;20025;-96
2021/06/27 03:23:12;;;;;;;261.92;241.95;;;;;;;;;;5217776;27;20028;-95
2021/06/27 03:29:12;;;;;;;235.25;216.95;;;;;;;;;;5271628;27;20057;-96
2021/06/27 03:31:49;;;;;;;317.55;294.05;;;;;;;;;;5265841;27;20024;-96
2021/06/27 03:35:01;;;;;;;253.93;234.73;;;;;;;;;;5265537;27;20095;-96
2021/06/27 03:41:09;;;;;;;254.57;234.32;;;;;;;;;;5281992;27;20381;-96
2021/06/27 03:44:21;;;;;;;290.23;268.25;;;;;;;;;;5266561;27;20047;-96
2021/06/27 03:47:23;;;;;;;300.23;276.25;;;;;;;;;;5247359;27;20022;-96
2021/06/27 03:50:12;;;;;;;;;;;;;;;;;;;;;
2021/06/27 03:52:53;;;;;;;312.60;286.65;;;;;;;;;;5260621;27;20036;-95
2021/06/27 03:55:25;;;;;;;359.27;332.83;;;;;;;;;;5261831;27;20338;-96
2021/06/27 03:58:03;;;;;;;;;;;;;;;;;;5244584;27;20045;-95
2021/06/27 04:01:07;;;;;;;355.60;329.40;;;;;;;;;;5189875;27;20591;-94
2021/06/27 04:04:33;;;;;;;352.92;324.40;;;;;;;;;;5244915;27;20033;-95
2021/06/27 04:07:32;;;;;;;298.40;273.73;;;;;;;;;;5246947;27;20060;-95
2021/06/27 04:10:08;;;;;;;295.17;271.87;;;;;;;;;;5243614;27;20030;-95
2021/06/27 04:12:41;;;;;;;;;;;;;;;;;;5243170;27;20030;-93
2021/06/27 04:16:05;;;;;;;298.87;275.90;;;;;;;;;;5245201;27;19933;-96
2021/06/27 04:18:51;;;;;;;318.45;293.90;;;;;;;;;;5243441;27;20446;-96
2021/06/27 04:21:38;;;;;;;262.10;242.43;;;;;;;;;;5244375;27;20037;-96
2021/06/27 04:24:20;;;;;;;280.00;258.95;;;;;;;;;;5261770;27;20128;-96
2021/06/27 04:27:03;;;;;;;266.88;246.98;;;;;;;;;;5243087;27;20453;-96
2021/06/27 04:29:40;;;;;;;431.83;397.35;;;;;;;;;;5243363;27;20022;-96
2021/06/27 04:32:59;;;;;;;;;;;;;;;;;;;;;
2021/06/27 04:35:39;;;;;;;380.92;350.65;;;;;;;;;;5259294;27;20434;-95
2021/06/27 04:38:37;;;;;;;318.30;292.33;;;;;;;;;;5245831;27;20036;-95
2021/06/27 04:41:29;;;;;;;273.23;250.75;;;;;;;;;;5259400;27;20029;-95
2021/06/27 04:44:29;;;;;;;343.92;315.87;;;;;;;;;;5245417;27;20098;-94
2021/06/27 04:47:11;;;;;;;310.23;288.05;;;;;;;;;;5244190;27;20088;-93
2021/06/27 04:50:26;;;;;;;273.75;254.18;;;;;;;;;;5244687;27;20120;-94
2021/06/27 04:53:41;;;;;;;277.70;258.13;;;;;;;;;;5252717;27;20031;-95
2021/06/27 04:56:18;;;;;;;292.75;270.35;;;;;;;;;;5244002;27;20035;-95
2021/06/27 04:59:19;;;;;;;300.92;277.38;;;;;;;;;;5258351;27;20017;-96
2021/06/27 05:02:25;;;;;;;291.50;270.15;;;;;;;;;;5263303;27;20040;-95
2021/06/27 05:05:31;;;;;;;332.33;307.58;;;;;;;;;;5179081;27;20681;-95
2021/06/27 05:11:56;;;;;;;282.42;259.62;;;;;;;;;;5159277;27;20031;-96
2021/06/27 05:18:02;;;;;;;332.87;307.23;;;;;;;;;;5158352;27;20085;-96
2021/06/27 05:25:00;;;;;;;323.55;300.95;;;;;;;;;;5088564;28;20041;-93
2021/06/27 05:28:15;;;;;;;313.48;291.67;;;;;;;;;;5093521;28;20032;-96
2021/06/27 05:31:10;;;;;;;366.08;340.62;;;;;;;;;;5107531;28;20072;-95
2021/06/27 05:34:13;;;;;;;338.70;313.37;;;;;;;;;;5094571;28;20075;-95
2021/06/27 05:37:27;;;;;;;;;;;;;;;;;;;;;
2021/06/27 05:40:26;;;;;;;296.70;274.23;;;;;;;;;;5064009;28;20046;-96
2021/06/27 05:43:58;;;;;;;327.70;303.85;;;;;;;;;;5165384;27;20082;-95
2021/06/27 05:46:57;;;;;;;351.25;325.67;;;;;;;;;;5165532;27;20035;-95
2021/06/27 05:50:16;;;;;;;339.50;314.73;;;;;;;;;;5183914;27;20031;-96
2021/06/27 05:53:07;;;;;;;407.08;376.73;;;;;;;;;;5195950;27;20034;-95
2021/06/27 05:56:22;;;;;;;441.60;407.05;;;;;;;;;;5244227;27;20021;-95
2021/06/27 05:59:48;;;;;;;429.83;396.67;;;;;;;;;;5251246;27;20067;-95
2021/06/27 06:02:37;;;;;;;439.13;405.25;;;;;;;;;;5246536;27;20030;-94
2021/06/27 06:05:29;;;;;;;339.88;315.27;;;;;;;;;;5242983;27;20121;-95
2021/06/27 06:08:36;;;;;;;395.25;366.17;;;;;;;;;;5245425;27;20037;-96
2021/06/27 06:11:46;;;;;;;469.05;432.75;;;;;;;;;;5247987;27;20041;-95
2021/06/27 06:14:35;;;;;;;354.45;327.58;;;;;;;;;;5263830;27;20025;-95
2021/06/27 06:17:51;;;;;;;333.13;308.73;;;;;;;;;;5273807;27;20054;-96
2021/06/27 06:21:43;;;;;;;287.55;266.20;;;;;;;;;;5245716;27;20030;-95
2021/06/27 06:25:02;;;;;;;302.38;280.35;;;;;;;;;;5266113;27;20071;-96
2021/06/27 06:28:46;;;;;;;368.30;339.10;;;;;;;;;;5181222;27;20023;-96
2021/06/27 06:31:51;;;;;;;362.30;334.20;;;;;;;;;;5170651;27;20057;-96
2021/06/27 06:41:53;;;;;;;;;;;;;;;;;;;;;
2021/06/27 06:45:27;;;;;;;249.77;231.80;;;;;;;;;;5265540;27;20080;-95
2021/06/27 06:56:51;;;;;;;396.50;365.27;;;;;;;;;;5069446;28;20069;-95
2021/06/27 07:00:27;;;;;;;;;;;;;;;;;;;;;
2021/06/27 07:07:45;;;;;;;;;;;;;;;;;;;;;
2021/06/27 07:11:24;;;;;;;481.98;445.25;;;;;;;;;;5164711;27;20031;-96
2021/06/27 07:14:41;;;;;;;409.05;378.37;;;;;;;;;;5240262;27;20025;-95
2021/06/27 07:17:40;;;;;;;364.08;336.30;;;;;;;;;;5257496;27;20408;-96
2021/06/27 07:23:46;;;;;;;324.17;301.33;;;;;;;;;;5238286;27;20089;-96
2021/06/27 07:26:44;;;;;;;;;;;;;;;;;;5159673;27;20043;-95
2021/06/27 07:29:44;;;;;;;336.45;309.75;;;;;;;;;;5151185;27;20544;-95
2021/06/27 07:33:17;;;;;;;297.12;275.15;;;;;;;;;;5098053;28;20103;-96
2021/06/27 07:36:31;;;;;;;366.45;338.87;;;;;;;;;;5065956;28;20040;-96
2021/06/27 07:39:57;;;;;;;344.05;316.10;;;;;;;;;;5079251;28;20012;-95
2021/06/27 07:43:40;;;;;;;372.27;341.83;;;;;;;;;;5084619;28;20486;-95
2021/06/27 07:47:14;;;;;;;;;;;;;;;;;;;;;
2021/06/27 07:50:32;;;;;;;;;;;;;;;;;;;;;
2021/06/27 07:54:12;;;;;;;389.02;355.83;;;;;;;;;;5090108;28;20028;-96
2021/06/27 07:57:44;;;;;;;341.00;314.70;;;;;;;;;;4988705;28;20078;-96
2021/06/27 08:00:45;;;;;;;373.23;342.65;;;;;;;;;;5040350;28;20056;-96
2021/06/27 08:04:00;;;;;;;332.95;305.08;;;;;;;;;;5122587;27;20059;-96
2021/06/27 08:06:43;;;;;;;444.80;408.55;;;;;;;;;;5126201;27;20035;-95
2021/06/27 08:09:59;;;;;;;429.85;394.65;;;;;;;;;;5156224;27;20679;-96
2021/06/27 08:13:05;;;;;;;437.83;403.77;;;;;;;;;;5135626;27;20462;-96
2021/06/27 08:19:37;;;;;;;334.27;306.65;;;;;;;;;;5117458;28;20047;-96
2021/06/27 08:22:48;;;;;;;390.45;356.27;;;;;;;;;;5087841;28;20028;-96
2021/06/27 08:26:16;;;;;;;399.65;365.37;;;;;;;;;;5095554;28;20040;-96
2021/06/27 08:29:49;;;;;;;354.15;323.80;;;;;;;;;;5088124;28;20045;-96
2021/06/27 08:33:36;;;;;;;324.45;296.48;;;;;;;;;;5056907;28;20037;-95
2021/06/27 08:36:21;;;;;;;282.55;258.17;;;;;;;;;;5086035;28;20479;-96
2021/06/27 08:39:06;;;;;;;276.37;254.98;;;;;;;;;;5092240;28;20032;-95
2021/06/27 08:41:56;;;;;;;321.77;296.12;;;;;;;;;;5109311;28;20059;-95
2021/06/27 08:45:05;;;;;;;;;;;;;;;;;;;;;
2021/06/27 08:48:18;;;;;;;145.62;135.68;;;;;;;;;;5068539;28;20036;-95
2021/06/27 08:50:54;;;;;;;80.10;74.83;;;;;;;;;;5133463;27;20456;-96
2021/06/27 08:54:12;;;;;;;191.95;178.05;;;;;;;;;;5161651;27;20060;-95
2021/06/27 08:57:48;;;;;;;128.38;120.13;;;;;;;;;;5159006;27;20361;-95
2021/06/27 09:00:52;;;;;;;125.55;116.90;;;;;;;;;;5201054;27;20049;-96
2021/06/27 09:11:57;;;;;;;257.02;235.80;;;;;;;;;;4955375;28;20057;-95
2021/06/27 09:14:54;;;;;;;54.25;49.80;;;;;;;;;;5056002;27;20028;-94
2021/06/27 09:17:27;;;;;;;246.07;224.90;;;;;;;;;;5155337;27;20037;-96
2021/06/27 09:20:29;;;;;;;91.30;83.25;;;;;;;;;;5153630;27;20027;-96
2021/06/27 09:24:11;;;;;;;189.57;175.45;;;;;;;;;;5155584;27;20020;-96
2021/06/27 09:27:25;;;;;;;;;;;;;;;;;;;;;
2021/06/27 09:33:59;;;;;;;81.72;75.12;;;;;;;;;;5153951;27;19950;-96
2021/06/27 09:40:06;;;;;;;299.75;274.60;;;;;;;;;;5190502;27;20462;-96
2021/06/27 09:43:09;;;;;;;74.97;68.95;;;;;;;;;;5205503;27;20403;-95
2021/06/27 09:45:57;;;;;;;130.07;118.65;;;;;;;;;;5199086;27;20023;-96
2021/06/27 09:52:50;;;;;;;;;;;;;;;;;;;;;
2021/06/27 09:56:06;;;;;;;102.57;80.97;;;;;;;;;;5205929;27;20042;-96
2021/06/27 10:03:04;;;;;;;82.55;76.90;;;;;;;;;;5158854;27;20027;-96
2021/06/27 11:42:03;;;;;;;208.43;193.90;;;;;;;;;;5244650;27;20352;-84
2021/06/27 11:44:32;;;;;;;223.30;207.07;;;;;;;;;;5248298;27;20026;-84
2021/06/27 11:47:20;;;;;;;169.27;128.48;;;;;;;;;;5248268;27;20463;-85
2021/06/27 11:49:49;;;;;;;187.40;173.10;;;;;;;;;;5242655;27;20029;-84
2021/06/27 11:52:17;;;;;;;127.35;118.18;;;;;;;;;;5250815;27;20034;-84
2021/06/27 11:54:46;;;;;;;256.58;237.55;;;;;;;;;;5247525;27;20030;-84
2021/06/27 11:57:14;;;;;;;112.72;104.55;;;;;;;;;;5242081;27;20263;-85
2021/06/27 11:59:54;;;;;;;103.20;96.10;;;;;;;;;;5236981;27;20112;-84
2021/06/27 12:02:28;;;;;;;216.93;201.23;;;;;;;;;;5243169;27;20022;-84
2021/06/27 12:04:59;;;;;;;97.05;91.53;;;;;;;;;;5229230;27;20054;-85
2021/06/27 12:07:36;;;;;;;217.43;202.77;;;;;;;;;;5248490;27;20026;-84
2021/06/27 12:10:16;;;;;;;125.20;115.70;;;;;;;;;;5248258;27;20543;-84
2021/06/27 12:12:48;;;;;;;152.93;143.05;;;;;;;;;;5247385;27;20026;-84
2021/06/27 12:15:20;;;;;;;338.73;312.63;;;;;;;;;;5249361;27;20026;-83
2021/06/27 12:17:50;;;;;;;227.77;211.02;;;;;;;;;;5253099;27;20334;-84
2021/06/27 12:20:19;;;;;;;341.27;314.38;;;;;;;;;;5246982;27;20045;-84
2021/06/27 12:23:05;;;;;;;250.62;231.90;;;;;;;;;;5229673;27;20039;-84
2021/06/27 12:25:38;;;;;;;442.73;406.02;;;;;;;;;;5248330;27;20049;-84
2021/06/27 12:28:07;;;;;;;;;;;;;;;;;;5244264;27;20027;-85
2021/06/27 12:30:41;;;;;;;325.50;301.92;;;;;;;;;;5247295;27;20499;-84
2021/06/27 12:33:14;;;;;;;378.42;349.60;;;;;;;;;;5244732;27;20056;-84
2021/06/27 12:35:45;;;;;;;286.42;263.90;;;;;;;;;;5248284;27;20026;-84
2021/06/27 12:38:14;;;;;;;119.13;109.72;;;;;;;;;;5248612;27;20450;-85
2021/06/27 12:40:49;;;;;;;200.30;187.18;;;;;;;;;;5249575;27;20069;-85
2021/06/27 12:43:23;;;;;;;340.83;314.08;;;;;;;;;;5248093;27;20076;-85
2021/06/27 12:46:11;;;;;;;;;;;;;;;;;;5247993;27;20064;-84
2021/06/27 12:48:40;;;;;;;233.75;217.27;;;;;;;;;;5250161;27;19960;-85
2021/06/27 12:51:41;;;;;;;227.73;206.87;;;;;;;;;;5250004;27;20072;-85
2021/06/27 12:54:10;;;;;;;367.02;337.35;;;;;;;;;;5211696;27;20029;-85
2021/06/27 12:56:43;;;;;;;165.52;153.62;;;;;;;;;;5249332;27;20395;-85
2021/06/27 12:59:12;;;;;;;232.80;215.18;;;;;;;;;;5248011;27;20041;-85
2021/06/27 13:01:54;;;;;;;196.25;181.15;;;;;;;;;;5249115;27;20034;-84
2021/06/27 13:04:27;;;;;;;161.88;150.18;;;;;;;;;;5249548;27;20022;-84
2021/06/27 13:07:12;;;;;;;380.23;348.90;;;;;;;;;;5248840;27;20510;-84
2021/06/27 13:09:42;;;;;;;171.93;159.23;;;;;;;;;;5226464;27;20360;-85
2021/06/27 13:12:12;;;;;;;149.68;139.15;;;;;;;;;;5249818;27;20127;-84
2021/06/27 13:14:42;;;;;;;306.05;280.67;;;;;;;;;;5244763;27;20041;-84
2021/06/27 13:17:12;;;;;;;143.60;133.20;;;;;;;;;;5247553;27;20028;-83
2021/06/27 13:20:02;;;;;;;299.10;275.87;;;;;;;;;;5246654;27;20033;-84
2021/06/27 13:22:31;;;;;;;318.15;292.42;;;;;;;;;;5245400;27;20309;-84
2021/06/27 13:25:01;;;;;;;164.35;150.95;;;;;;;;;;5244716;27;20022;-85
2021/06/27 13:27:29;;;;;;;320.75;293.73;;;;;;;;;;5244678;27;20026;-83
2021/06/27 13:30:09;;;;;;;152.60;141.07;;;;;;;;;;5245733;27;20040;-84
2021/06/27 13:32:41;;;;;;;227.35;209.70;;;;;;;;;;5247288;27;20407;-84
2021/06/27 13:35:32;;;;;;;222.88;206.25;;;;;;;;;;5246442;27;20377;-84
2021/06/27 13:38:02;;;;;;;209.65;193.62;;;;;;;;;;5246821;27;20053;-84
2021/06/27 13:40:32;;;;;;;129.45;119.75;;;;;;;;;;5245352;27;20424;-84
2021/06/27 13:43:01;;;;;;;171.05;158.52;;;;;;;;;;5224644;27;20104;-84
2021/06/27 13:45:29;;;;;;;139.15;129.02;;;;;;;;;;5245430;27;20061;-84
2021/06/27 13:47:58;;;;;;;161.12;147.30;;;;;;;;;;5243738;27;20075;-85
2021/06/27 13:50:28;;;;;;;269.83;249.25;;;;;;;;;;5243592;27;20380;-84
2021/06/27 13:52:58;;;;;;;166.12;153.50;;;;;;;;;;5225365;27;20026;-84
2021/06/27 13:55:27;;;;;;;152.93;141.98;;;;;;;;;;5244222;27;20030;-82
2021/06/27 13:57:57;;;;;;;245.85;227.10;;;;;;;;;;5244798;27;20055;-84
2021/06/27 14:00:26;;;;;;;205.68;190.85;;;;;;;;;;5245758;27;20062;-84
2021/06/27 14:02:56;;;;;;;214.80;198.62;;;;;;;;;;5244584;27;20058;-84
2021/06/27 14:05:25;;;;;;;128.75;119.32;;;;;;;;;;5242006;27;20069;-84
2021/06/27 14:07:56;;;;;;;108.40;99.90;;;;;;;;;;5225473;27;20300;-84
2021/06/27 14:10:26;;;;;;;297.80;272.73;;;;;;;;;;5243424;27;20434;-85
2021/06/27 14:12:55;;;;;;;299.98;276.02;;;;;;;;;;5244715;27;20096;-85
2021/06/27 14:15:24;;;;;;;137.77;127.95;;;;;;;;;;5245939;27;20068;-84
2021/06/27 14:17:53;;;;;;;276.45;254.75;;;;;;;;;;5246137;27;20036;-83
2021/06/27 14:20:23;;;;;;;189.00;175.70;;;;;;;;;;5245679;27;20185;-84
2021/06/27 14:22:53;;;;;;;298.73;275.38;;;;;;;;;;5243856;27;20424;-84
2021/06/27 14:25:23;;;;;;;91.65;85.32;;;;;;;;;;5244881;27;20054;-85
2021/06/27 14:27:52;;;;;;;150.82;139.88;;;;;;;;;;5245450;27;20125;-84
2021/06/27 14:30:20;;;;;;;285.20;260.98;;;;;;;;;;5244584;27;20080;-84
2021/06/27 14:32:49;;;;;;;165.82;153.10;;;;;;;;;;5244906;27;20027;-84
2021/06/27 14:35:17;;;;;;;262.02;240.07;;;;;;;;;;5245413;27;20248;-84
2021/06/27 14:37:45;;;;;;;183.85;168.87;;;;;;;;;;5246476;27;20399;-83
2021/06/27 14:40:17;;;;;;;240.15;222.32;;;;;;;;;;5245041;27;20439;-84
2021/06/27 14:42:45;;;;;;;164.57;151.20;;;;;;;;;;5245976;27;20054;-84
2021/06/27 14:45:15;;;;;;;232.80;216.20;;;;;;;;;;5243258;27;20436;-84
2021/06/27 14:47:44;;;;;;;167.35;154.32;;;;;;;;;;5245438;27;20061;-83
2021/06/27 14:50:12;;;;;;;111.78;104.25;;;;;;;;;;5223575;27;20092;-84
2021/06/27 14:52:41;;;;;;;216.57;199.75;;;;;;;;;;5243256;27;20464;-83
2021/06/27 14:55:10;;;;;;;119.50;110.45;;;;;;;;;;5225750;27;20111;-83
2021/06/27 14:57:39;;;;;;;219.27;201.12;;;;;;;;;;5225558;27;20478;-84
2021/06/27 15:00:09;;;;;;;187.02;173.87;;;;;;;;;;5247364;27;20062;-84
2021/06/27 15:02:37;;;;;;;97.72;89.85;;;;;;;;;;5225466;27;20412;-85
2021/06/27 15:05:06;;;;;;;186.18;171.85;;;;;;;;;;5242919;27;20508;-84
2021/06/27 15:07:35;;;;;;;130.37;120.35;;;;;;;;;;5245065;27;20470;-85
2021/06/27 15:10:05;;;;;;;255.45;236.15;;;;;;;;;;5243471;27;20371;-83
2021/06/27 15:12:34;;;;;;;198.57;184.32;;;;;;;;;;5244686;27;20054;-84
2021/06/27 15:15:03;;;;;;;241.98;222.70;;;;;;;;;;5244596;27;20037;-85
2021/06/27 15:17:31;;;;;;;213.32;196.45;;;;;;;;;;5246568;27;20044;-84
2021/06/27 15:20:00;;;;;;;96.07;89.80;;;;;;;;;;5245682;27;20456;-84
2021/06/27 15:22:30;;;;;;;304.30;280.58;;;;;;;;;;5246896;27;20458;-84
2021/06/27 15:24:59;;;;;;;31.37;28.85;;;;;;;;;;5247093;27;20026;-84
2021/06/27 15:27:28;;;;;;;147.70;136.55;;;;;;;;;;5245049;27;20383;-84
2021/06/27 15:29:56;;;;;;;160.50;148.05;;;;;;;;;;5245166;27;20065;-83
2021/06/27 15:32:24;;;;;;;196.30;180.70;;;;;;;;;;5246085;27;20030;-85
2021/06/27 15:34:53;;;;;;;122.35;112.53;;;;;;;;;;5246088;27;20034;-84
2021/06/27 15:37:22;;;;;;;274.98;253.20;;;;;;;;;;5245441;27;20063;-83
2021/06/27 15:39:50;;;;;;;336.12;307.58;;;;;;;;;;5245292;27;20421;-83
2021/06/27 15:42:19;;;;;;;285.15;262.88;;;;;;;;;;5245997;27;20025;-83
2021/06/27 15:44:47;;;;;;;176.00;162.62;;;;;;;;;;5245988;27;20077;-84
2021/06/27 15:47:16;;;;;;;104.03;96.65;;;;;;;;;;5244612;27;20080;-84
2021/06/27 15:49:44;;;;;;;218.12;200.38;;;;;;;;;;5244799;27;20478;-83
2021/06/27 15:52:13;;;;;;;172.37;157.93;;;;;;;;;;5244190;27;20218;-84
2021/06/27 15:54:41;;;;;;;234.43;216.70;;;;;;;;;;5243539;27;20060;-85
2021/06/27 15:57:10;;;;;;;232.07;214.43;;;;;;;;;;5244424;27;20041;-84
2021/06/27 15:59:39;;;;;;;148.45;137.85;;;;;;;;;;5243857;27;20121;-83
2021/06/27 16:02:08;;;;;;;184.68;170.10;;;;;;;;;;5245841;27;20522;-84
2021/06/27 16:04:37;;;;;;;218.12;200.82;;;;;;;;;;5243845;27;20510;-84
2021/06/27 16:07:05;;;;;;;253.12;232.07;;;;;;;;;;5243571;27;20029;-84
2021/06/27 16:09:34;;;;;;;321.92;292.87;;;;;;;;;;5243265;27;20114;-83
2021/06/27 16:12:03;;;;;;;289.00;264.90;;;;;;;;;;5245361;27;20093;-83
2021/06/27 16:14:31;;;;;;;186.82;172.37;;;;;;;;;;5244503;27;20613;-84
2021/06/27 16:17:00;;;;;;;144.68;133.82;;;;;;;;;;5244351;27;20079;-83
2021/06/27 16:19:29;;;;;;;244.15;224.75;;;;;;;;;;5244253;27;20141;-84
2021/06/27 16:22:03;;;;;;;268.73;248.02;;;;;;;;;;5225106;27;20080;-84
2021/06/27 16:24:32;;;;;;;133.55;124.28;;;;;;;;;;5243800;27;20026;-84
2021/06/27 16:27:01;;;;;;;298.02;273.25;;;;;;;;;;5243558;27;20029;-83
2021/06/27 16:29:32;;;;;;;198.95;183.20;;;;;;;;;;5244564;27;20049;-84
2021/06/27 16:32:01;;;;;;;181.37;167.62;;;;;;;;;;5225820;27;20022;-85
2021/06/27 16:34:30;;;;;;;253.32;232.73;;;;;;;;;;5224784;27;20030;-84
2021/06/27 16:36:59;;;;;;;93.55;86.45;;;;;;;;;;5243459;27;20613;-84
2021/06/27 16:39:27;;;;;;;137.35;126.25;;;;;;;;;;5243081;27;20066;-84
2021/06/27 16:41:56;;;;;;;173.45;160.18;;;;;;;;;;5243737;27;20044;-84
2021/06/27 16:44:25;;;;;;;219.32;202.93;;;;;;;;;;5244778;27;20412;-84
2021/06/27 16:46:54;;;;;;;190.38;175.93;;;;;;;;;;5245235;27;20059;-84
2021/06/27 16:49:22;;;;;;;164.77;153.00;;;;;;;;;;5244990;27;20364;-84
2021/06/27 16:51:54;;;;;;;188.00;174.80;;;;;;;;;;5244598;27;20022;-84
2021/06/27 16:54:23;;;;;;;187.60;174.80;;;;;;;;;;5245346;27;20479;-83
2021/06/27 16:56:52;;;;;;;171.68;159.85;;;;;;;;;;5244593;27;20068;-84
2021/06/27 16:59:20;;;;;;;200.43;184.70;;;;;;;;;;5246119;27;20046;-83
2021/06/27 17:01:48;;;;;;;229.07;213.12;;;;;;;;;;5245644;27;20026;-83
2021/06/27 17:04:17;;;;;;;145.90;134.40;;;;;;;;;;5247392;27;20050;-84
2021/06/27 17:06:46;;;;;;;184.93;171.23;;;;;;;;;;5247354;27;20029;-83
2021/06/27 17:09:14;;;;;;;306.00;281.33;;;;;;;;;;5227819;27;20068;-83
2021/06/27 17:11:44;;;;;;;247.98;229.32;;;;;;;;;;5247820;27;20037;-84
2021/06/27 17:14:13;;;;;;;219.13;203.57;;;;;;;;;;5247320;27;20401;-83
2021/06/27 17:16:43;;;;;;;103.40;95.50;;;;;;;;;;5246157;27;20420;-83
2021/06/27 17:19:12;;;;;;;193.98;180.27;;;;;;;;;;5247475;27;20420;-84
2021/06/27 17:21:40;;;;;;;169.02;157.82;;;;;;;;;;5245772;27;20068;-83
2021/06/27 17:24:09;;;;;;;180.07;166.37;;;;;;;;;;5244496;27;20113;-83
2021/06/27 17:26:38;;;;;;;171.27;159.48;;;;;;;;;;5207405;27;20115;-83
2021/06/27 17:29:06;;;;;;;180.45;167.98;;;;;;;;;;5244861;27;20023;-83
2021/06/27 17:31:35;;;;;;;187.40;174.45;;;;;;;;;;5246472;27;20064;-83
2021/06/27 17:34:04;;;;;;;49.13;45.55;;;;;;;;;;5244184;27;20062;-83
2021/06/27 17:36:33;;;;;;;171.95;158.48;;;;;;;;;;5243894;27;20405;-83
2021/06/27 17:39:04;;;;;;;203.80;189.68;;;;;;;;;;5245104;27;20056;-83
2021/06/27 17:41:32;;;;;;;236.95;218.00;;;;;;;;;;5244677;27;20068;-84
2021/06/27 17:44:01;;;;;;;143.65;134.02;;;;;;;;;;5226997;27;20041;-83
2021/06/27 17:46:31;;;;;;;208.48;193.52;;;;;;;;;;5244335;27;20436;-84
2021/06/27 17:48:59;;;;;;;240.70;223.15;;;;;;;;;;5227806;27;20026;-84
2021/06/27 17:51:28;;;;;;;117.80;109.63;;;;;;;;;;5244515;27;20030;-83
2021/06/27 17:53:56;;;;;;;158.45;147.57;;;;;;;;;;5245602;27;20023;-83
2021/06/27 17:56:29;;;;;;;243.55;225.35;;;;;;;;;;5245375;27;20080;-83
2021/06/27 17:58:58;;;;;;;131.70;122.50;;;;;;;;;;5244620;27;20037;-83
2021/06/27 18:01:27;;;;;;;200.80;183.73;;;;;;;;;;5225862;27;20475;-84
2021/06/27 18:03:55;;;;;;;141.50;131.77;;;;;;;;;;5246436;27;20062;-84
2021/06/27 18:06:24;;;;;;;149.50;140.20;;;;;;;;;;5245313;27;20105;-83
2021/06/27 18:08:54;;;;;;;99.97;92.45;;;;;;;;;;5247874;27;20356;-83
2021/06/27 18:11:24;;;;;;;174.40;162.23;;;;;;;;;;5245898;27;20890;-82